Portada
METAR-TAF:

METAR-TAF

Aeropuertos :

Kristianstad, Suecia

latitud: 55-55N, longitud: 014-05E, altitud: 23 m

Observación

El informe se hizo hace 22 minutos, a las 05:50 UTC
Viento 4 kt del este-sureste
Temperatura 3°C
Humedad 100%
Presión 1018 hPa
Visibilidad: 0100 m
niebla

METAR: ESMK 180550Z 12004KT 0100 R01/0450N R19/0400N FG VV001 03/03 Q1018

Hora: 07:12 (06:12 UTC)

Pronóstico

El informe se hizo hace 57 minutos, a las 05:15 UTC
Pronóstico válido del 18 a las 06 UTC al 18 a las 15 UTC
Viento 5 kt del este-sureste
Visibilidad: 0100 m
a una altura de 100 ft
niebla
Temporalmente
del 18 a las 06 UTC al 18 a las 10 UTC
Visibilidad: 3000 m
Cielo nuboso a una altura de 600 ft
neblina
Evolucionando progresivamente
del 18 a las 10 UTC al 18 a las 12 UTC
Visibilidad: 8000 m
Nubes dispersas a una altura de 600 ft

TAF: ESMK 180515Z 1806/1815 11005KT 0100 FG VV001 TEMPO 1806/1810 3000 BR BKN006 BECMG 1810/1812 8000 NSW SCT006

Observaciones y pronósticos meteorológicos de más de 4000 aeropuertos (mensajes METAR y TAF).

Los puntos amarillos y rojos representan las estaciones disponibles.

Ponga el ratón en el punto deseado para ver el nombre de la estación.

Haga clic para ver las observaciones y los pronósticos meteorológicos.

Para cambiar el mapa : haga clic en los botones verdes con una cruz de color negro para hacer un zoom, en el botón verde con un guión para alejar o en las flechas verdes para mapas adyacentes.


METAR-TAF: